createdAt,value
2018-05-24T00:00:33.217Z,88.50
2018-05-24T00:03:00.738Z,88.50
2018-05-24T00:05:28.221Z,88.90
2018-05-24T00:07:55.814Z,88.80
2018-05-24T00:10:24.130Z,88.30
2018-05-24T00:12:51.646Z,88.30
2018-05-24T00:15:19.926Z,88.80
2018-05-24T00:17:47.448Z,88.80
2018-05-24T00:20:14.937Z,89.00
2018-05-24T00:22:42.470Z,89.00
2018-05-24T00:25:10.059Z,89.00
2018-05-24T00:27:37.578Z,89.10
2018-05-24T00:30:05.069Z,89.10
2018-05-24T00:32:32.593Z,89.20
2018-05-24T00:35:00.082Z,89.10
2018-05-24T00:37:27.591Z,89.30
2018-05-24T00:39:55.846Z,89.60
2018-05-24T00:42:23.363Z,89.60
2018-05-24T00:44:51.627Z,89.40
2018-05-24T00:47:19.373Z,89.40
2018-05-24T00:49:47.653Z,89.30
2018-05-24T00:52:16.750Z,89.30
2018-05-24T00:54:44.318Z,89.30
2018-05-24T00:57:12.757Z,89.30
2018-05-24T00:59:40.346Z,89.20
2018-05-24T01:02:07.866Z,89.00
2018-05-24T01:04:35.412Z,89.20
2018-05-24T01:07:02.909Z,89.40
2018-05-24T01:09:30.486Z,89.90
2018-05-24T01:11:57.985Z,90.00
2018-05-24T01:14:26.266Z,90.00
2018-05-24T01:16:53.746Z,90.00
2018-05-24T01:19:21.259Z,90.30
2018-05-24T01:21:48.742Z,90.70
2018-05-24T01:24:17.022Z,90.50
2018-05-24T01:26:44.515Z,90.50
2018-05-24T01:29:12.903Z,90.00
2018-05-24T01:31:40.391Z,90.30
2018-05-24T01:34:07.906Z,90.20
2018-05-24T01:36:48.222Z,90.70
2018-05-24T01:39:15.738Z,90.40
2018-05-24T01:41:43.321Z,90.60
2018-05-24T01:44:10.858Z,90.70
2018-05-24T01:46:38.497Z,90.60
2018-05-24T01:49:06.082Z,90.60
2018-05-24T01:51:33.579Z,90.70
2018-05-24T01:54:01.094Z,90.80
2018-05-24T01:56:28.638Z,90.90
2018-05-24T01:58:56.942Z,90.80
2018-05-24T02:01:24.518Z,90.80
2018-05-24T02:03:53.670Z,90.50
2018-05-24T02:06:21.931Z,90.50
2018-05-24T02:08:49.444Z,90.50
2018-05-24T02:11:17.734Z,90.50
2018-05-24T02:13:46.764Z,90.70
2018-05-24T02:16:15.026Z,90.70
2018-05-24T02:18:42.534Z,90.70
2018-05-24T02:21:10.047Z,90.70
2018-05-24T02:23:38.355Z,90.80
2018-05-24T02:26:05.898Z,90.80
2018-05-24T02:28:33.394Z,90.80
2018-05-24T02:31:00.922Z,90.60
2018-05-24T02:33:28.422Z,90.40
2018-05-24T02:35:56.109Z,90.40
2018-05-24T02:38:24.209Z,90.50
2018-05-24T02:40:51.723Z,90.50
2018-05-24T02:43:19.318Z,90.50
2018-05-24T02:45:46.898Z,90.70
2018-05-24T02:48:14.574Z,91.10
2018-05-24T02:50:42.171Z,90.70
2018-05-24T02:53:09.667Z,90.80
2018-05-24T02:55:37.952Z,91.00
2018-05-24T02:58:05.450Z,90.80
2018-05-24T03:00:33.730Z,91.00
2018-05-24T03:03:01.359Z,91.00
2018-05-24T03:05:28.880Z,90.90
2018-05-24T03:07:56.372Z,91.20
2018-05-24T03:10:24.084Z,91.30
2018-05-24T03:12:51.666Z,91.20
2018-05-24T03:15:19.187Z,91.30
2018-05-24T03:17:46.679Z,91.50
2018-05-24T03:20:14.194Z,91.20
2018-05-24T03:22:41.693Z,91.10
2018-05-24T03:25:09.282Z,91.10
2018-05-24T03:27:36.869Z,91.30
2018-05-24T03:30:04.462Z,91.00
2018-05-24T03:32:32.726Z,90.90
2018-05-24T03:35:00.344Z,90.90
2018-05-24T03:37:27.839Z,91.00
2018-05-24T03:39:56.148Z,91.40
2018-05-24T03:42:24.404Z,91.30
2018-05-24T03:44:51.915Z,91.30
2018-05-24T03:47:19.431Z,91.10
2018-05-24T03:49:46.946Z,91.00
2018-05-24T03:52:14.760Z,90.90
2018-05-24T03:54:43.011Z,90.90
2018-05-24T03:57:10.498Z,90.90
2018-05-24T04:02:53.374Z,90.90
2018-05-24T04:05:21.650Z,90.90
2018-05-24T04:07:49.143Z,90.80
2018-05-24T04:10:16.714Z,90.80
2018-05-24T04:12:44.214Z,90.80
2018-05-24T04:15:12.475Z,90.80
2018-05-24T04:17:39.987Z,90.60
2018-05-24T04:20:07.574Z,90.60
2018-05-24T04:22:35.094Z,90.60
2018-05-24T04:25:02.578Z,90.60
2018-05-24T04:27:30.113Z,90.60
2018-05-24T04:29:57.703Z,90.50
2018-05-24T04:32:25.219Z,90.50
2018-05-24T04:34:53.480Z,90.10
2018-05-24T04:37:20.998Z,90.10
2018-05-24T04:39:49.270Z,89.70
2018-05-24T04:42:18.308Z,89.90
2018-05-24T04:44:45.803Z,89.90
2018-05-24T04:47:14.084Z,90.00
2018-05-24T04:49:41.581Z,89.90
2018-05-24T04:52:09.932Z,90.00
2018-05-24T04:54:37.654Z,90.00
2018-05-24T04:57:05.233Z,90.20
2018-05-24T04:59:32.718Z,90.30
2018-05-24T05:02:01.854Z,90.30
2018-05-24T05:04:29.366Z,90.20
2018-05-24T05:06:56.890Z,90.20
2018-05-24T05:09:24.382Z,90.00
2018-05-24T05:11:51.890Z,89.80
2018-05-24T05:14:19.383Z,89.90
2018-05-24T05:16:47.662Z,89.90
2018-05-24T05:19:15.150Z,89.90
2018-05-24T05:21:42.669Z,89.60
2018-05-24T05:24:10.223Z,89.60
2018-05-24T05:26:37.751Z,89.50
2018-05-24T05:29:05.241Z,89.50
2018-05-24T05:31:32.761Z,89.70
2018-05-24T05:34:00.245Z,89.70
2018-05-24T05:36:27.766Z,89.30
2018-05-24T05:38:55.445Z,89.20
2018-05-24T05:41:22.990Z,89.00
2018-05-24T05:43:50.514Z,88.50
2018-05-24T05:46:18.767Z,87.90
2018-05-24T05:48:46.283Z,87.90
2018-05-24T05:51:13.855Z,88.00
2018-05-24T05:53:41.379Z,87.80
2018-05-24T05:56:09.654Z,87.80
2018-05-24T05:58:37.171Z,87.80
2018-05-24T06:01:04.674Z,88.30
2018-05-24T06:03:32.191Z,88.90
2018-05-24T06:05:59.809Z,89.10
2018-05-24T06:08:28.081Z,89.10
2018-05-24T06:10:55.676Z,89.10
2018-05-24T06:13:23.186Z,89.20
2018-05-24T06:15:51.439Z,89.20
2018-05-24T06:18:19.150Z,89.20
2018-05-24T06:20:46.641Z,89.40
2018-05-24T06:23:14.218Z,89.10
2018-05-24T06:25:41.714Z,89.00
2018-05-24T06:28:09.230Z,88.80
2018-05-24T06:30:36.778Z,88.90
2018-05-24T06:33:04.291Z,88.60
2018-05-24T06:35:32.562Z,87.90
2018-05-24T06:38:00.070Z,87.80
2018-05-24T06:40:28.368Z,87.10
2018-05-24T06:42:55.850Z,87.10
2018-05-24T06:45:24.143Z,86.10
2018-05-24T06:47:51.731Z,86.10
2018-05-24T06:50:19.231Z,85.00
2018-05-24T06:52:47.615Z,82.40
2018-05-24T06:55:15.203Z,82.40
2018-05-24T06:57:42.795Z,81.10
2018-05-24T07:00:10.374Z,80.00
2018-05-24T07:02:37.891Z,79.20
2018-05-24T07:05:06.148Z,78.70
2018-05-24T07:07:33.753Z,78.70
2018-05-24T07:10:02.014Z,78.80
2018-05-24T07:12:29.518Z,78.70
2018-05-24T07:14:57.049Z,77.80
2018-05-24T07:17:25.423Z,76.70
2018-05-24T07:19:53.013Z,76.60
2018-05-24T07:22:20.515Z,75.90
2018-05-24T07:24:48.030Z,74.90
2018-05-24T07:27:15.519Z,74.00
2018-05-24T07:29:43.055Z,73.40
2018-05-24T07:32:10.546Z,73.30
2018-05-24T07:34:38.254Z,74.20
2018-05-24T07:37:06.539Z,74.40
2018-05-24T07:39:34.134Z,74.20
2018-05-24T07:42:02.405Z,74.60
2018-05-24T07:44:29.932Z,73.90
2018-05-24T07:46:58.186Z,73.80
2018-05-24T07:49:25.706Z,73.00
2018-05-24T07:51:54.738Z,71.80
2018-05-24T07:54:22.251Z,71.70
2018-05-24T07:56:49.745Z,70.80
2018-05-24T07:59:17.254Z,70.30
2018-05-24T08:01:44.797Z,69.80
2018-05-24T08:04:12.277Z,69.90
2018-05-24T08:06:40.546Z,71.90
2018-05-24T08:09:08.145Z,71.80
2018-05-24T08:11:35.730Z,72.90
2018-05-24T08:14:03.252Z,73.40
2018-05-24T08:16:30.824Z,73.70
2018-05-24T08:18:59.185Z,74.60
2018-05-24T08:21:26.783Z,74.50
2018-05-24T08:23:54.507Z,72.50
2018-05-24T08:26:22.809Z,69.30
2018-05-24T08:28:51.195Z,69.70
2018-05-24T08:31:18.687Z,69.60
2018-05-24T08:33:46.198Z,71.10
2018-05-24T08:36:13.686Z,72.00
2018-05-24T08:38:41.203Z,72.20
2018-05-24T08:41:08.698Z,71.90
2018-05-24T08:43:36.294Z,69.90
2018-05-24T08:46:03.908Z,67.90
2018-05-24T08:48:32.217Z,65.10
2018-05-24T08:50:59.730Z,65.00
2018-05-24T08:53:27.372Z,63.80
2018-05-24T08:55:55.646Z,61.10
2018-05-24T08:58:23.244Z,61.10
2018-05-24T09:00:50.757Z,60.60
2018-05-24T09:03:19.027Z,60.40
2018-05-24T09:05:46.534Z,60.40
2018-05-24T09:08:14.109Z,60.60
2018-05-24T09:10:41.557Z,61.00
2018-05-24T09:13:09.050Z,61.10
2018-05-24T09:15:36.573Z,61.00
2018-05-24T09:18:04.826Z,61.00
2018-05-24T09:20:32.346Z,61.00
2018-05-24T09:22:59.925Z,61.30
2018-05-24T09:25:28.963Z,59.90
2018-05-24T09:27:56.461Z,59.80
2018-05-24T09:30:24.733Z,58.00
2018-05-24T09:32:52.226Z,58.00
2018-05-24T09:35:19.809Z,57.40
2018-05-24T09:37:48.803Z,56.90
2018-05-24T09:40:16.322Z,56.80
2018-05-24T09:42:43.824Z,56.20
2018-05-24T09:45:12.208Z,54.80
2018-05-24T09:47:39.791Z,54.80
2018-05-24T09:50:07.379Z,55.10
2018-05-24T09:52:34.887Z,53.70
2018-05-24T09:55:03.182Z,53.20
2018-05-24T09:57:31.496Z,53.80
2018-05-24T09:59:59.870Z,53.80
2018-05-24T10:02:27.491Z,53.80
2018-05-24T10:04:55.775Z,52.50
2018-05-24T10:07:23.266Z,52.50
2018-05-24T10:09:51.560Z,51.30
2018-05-24T10:12:19.046Z,51.30
2018-05-24T10:14:46.631Z,51.20
2018-05-24T10:17:14.134Z,50.70
2018-05-24T10:19:42.410Z,50.80
2018-05-24T10:22:10.026Z,50.80
2018-05-24T10:24:38.327Z,51.00
2018-05-24T10:27:06.587Z,50.70
2018-05-24T10:29:34.104Z,50.70
2018-05-24T10:32:02.432Z,49.30
2018-05-24T10:34:31.401Z,49.70
2018-05-24T10:36:59.031Z,49.60
2018-05-24T10:39:27.366Z,50.80
2018-05-24T10:41:55.602Z,50.30
2018-05-24T10:44:23.085Z,50.20
2018-05-24T10:46:50.619Z,47.70
2018-05-24T10:49:18.921Z,44.10
2018-05-24T10:51:47.192Z,43.60
2018-05-24T10:54:14.867Z,43.50
2018-05-24T10:56:42.373Z,43.40
2018-05-24T10:59:09.954Z,44.50
2018-05-24T11:01:37.458Z,45.60
2018-05-24T11:04:05.715Z,45.30
2018-05-24T11:06:33.330Z,44.60
2018-05-24T11:09:00.824Z,42.30
2018-05-24T11:11:28.396Z,40.50
2018-05-24T11:13:55.950Z,39.40
2018-05-24T11:16:23.490Z,37.80
2018-05-24T11:18:51.774Z,38.90
2018-05-24T11:21:19.385Z,39.60
2018-05-24T11:23:47.663Z,38.00
2018-05-24T11:26:15.958Z,38.10
2018-05-24T11:28:43.453Z,38.10
2018-05-24T11:31:11.055Z,35.70
2018-05-24T11:33:39.309Z,35.10
2018-05-24T11:36:06.826Z,35.00
2018-05-24T11:38:34.409Z,33.20
2018-05-24T11:41:02.054Z,32.60
2018-05-24T11:43:29.718Z,33.80
2018-05-24T11:45:57.090Z,33.30
2018-05-24T11:48:24.595Z,31.80
2018-05-24T11:50:52.110Z,32.40
2018-05-24T11:53:19.603Z,33.80
2018-05-24T11:55:47.112Z,35.80
2018-05-24T11:58:15.358Z,34.10
2018-05-24T12:00:42.978Z,34.00
2018-05-24T12:03:10.463Z,33.70
2018-05-24T12:05:37.983Z,33.50
2018-05-24T12:08:05.462Z,33.70
2018-05-24T12:10:33.083Z,35.00
2018-05-24T12:13:00.890Z,33.90
2018-05-24T12:15:28.482Z,31.80
2018-05-24T12:17:56.001Z,30.10
2018-05-24T12:20:23.660Z,30.50
2018-05-24T12:22:51.933Z,32.50
2018-05-24T12:25:19.461Z,32.40
2018-05-24T12:27:47.752Z,31.60
2018-05-24T12:30:16.002Z,30.20
2018-05-24T12:32:43.530Z,30.20
2018-05-24T12:35:11.832Z,30.30
2018-05-24T12:37:39.350Z,30.30
2018-05-24T12:40:06.843Z,29.20
2018-05-24T12:42:34.403Z,27.50
2018-05-24T12:45:02.678Z,26.40
2018-05-24T12:47:30.952Z,25.60
2018-05-24T12:49:58.438Z,25.60
2018-05-24T12:52:26.072Z,25.20
2018-05-24T12:54:54.322Z,29.80
2018-05-24T12:57:21.828Z,29.70
2018-05-24T12:59:49.315Z,32.00
2018-05-24T13:02:16.830Z,35.20
2018-05-24T13:04:44.407Z,35.70
2018-05-24T13:07:12.786Z,36.60
2018-05-24T13:09:41.789Z,35.50
2018-05-24T13:12:09.313Z,35.50
2018-05-24T13:14:37.574Z,36.00
2018-05-24T13:17:05.102Z,36.00
2018-05-24T13:19:32.595Z,36.00
2018-05-24T13:22:00.118Z,34.60
2018-05-24T13:24:27.749Z,34.80
2018-05-24T13:26:55.331Z,33.20
2018-05-24T13:29:23.582Z,30.30
2018-05-24T13:31:51.094Z,30.20
2018-05-24T13:34:18.669Z,28.00
2018-05-24T13:36:46.263Z,26.30
2018-05-24T13:39:15.284Z,23.40
2018-05-24T13:41:42.798Z,23.40
2018-05-24T13:44:10.376Z,22.20
2018-05-24T13:46:38.670Z,22.40
2018-05-24T13:49:06.945Z,22.80
2018-05-24T13:51:34.436Z,22.70
2018-05-24T13:54:02.152Z,24.00
2018-05-24T13:56:29.651Z,25.00
2018-05-24T13:58:57.182Z,25.20
2018-05-24T14:01:24.677Z,25.80
2018-05-24T14:03:52.954Z,30.00
2018-05-24T14:06:20.434Z,29.90
2018-05-24T14:08:47.963Z,30.20
2018-05-24T14:11:15.462Z,30.50
2018-05-24T14:13:42.974Z,31.70
2018-05-24T14:16:10.457Z,33.60
2018-05-24T14:18:37.965Z,35.00
2018-05-24T14:21:06.221Z,33.30
2018-05-24T14:23:33.873Z,33.30
2018-05-24T14:26:02.174Z,33.40
2018-05-24T14:28:30.453Z,34.30
2018-05-24T14:30:57.938Z,34.30
2018-05-24T14:33:25.519Z,35.10
2018-05-24T14:35:53.001Z,36.50
2018-05-24T14:38:20.522Z,36.70
2018-05-24T14:40:48.778Z,37.50
2018-05-24T14:43:16.381Z,37.40
2018-05-24T14:45:43.887Z,39.10
2018-05-24T14:48:12.163Z,41.70
2018-05-24T14:50:39.888Z,41.70
2018-05-24T14:53:07.398Z,41.70
2018-05-24T14:55:34.930Z,40.60
2018-05-24T14:58:03.226Z,44.80
2018-05-24T15:00:32.219Z,46.60
2018-05-24T15:02:59.747Z,46.60
2018-05-24T15:05:28.034Z,47.70
2018-05-24T15:07:55.553Z,47.70
2018-05-24T15:10:23.054Z,49.00
2018-05-24T15:12:50.600Z,48.80
2018-05-24T15:15:18.192Z,49.10
2018-05-24T15:17:45.978Z,49.60
2018-05-24T15:20:13.598Z,50.40
2018-05-24T15:22:41.143Z,51.00
2018-05-24T15:25:09.448Z,52.20
2018-05-24T15:27:37.708Z,52.50
2018-05-24T15:30:05.242Z,52.50
2018-05-24T15:32:32.731Z,53.00
2018-05-24T15:35:00.250Z,53.40
2018-05-24T15:37:27.758Z,53.50
2018-05-24T15:39:55.279Z,53.00
2018-05-24T15:42:22.848Z,52.60
2018-05-24T15:44:51.222Z,52.50
2018-05-24T15:47:18.795Z,52.50
2018-05-24T15:49:46.315Z,52.70
2018-05-24T15:52:13.805Z,52.60
2018-05-24T15:54:42.090Z,52.00
2018-05-24T15:57:09.582Z,52.00
2018-05-24T15:59:38.102Z,52.40
2018-05-24T16:02:05.594Z,52.30
2018-05-24T16:04:33.101Z,52.80
2018-05-24T16:07:00.591Z,53.10
2018-05-24T16:09:28.106Z,52.70
2018-05-24T16:11:55.594Z,52.10
2018-05-24T16:14:23.878Z,51.80
2018-05-24T16:16:51.368Z,51.10
2018-05-24T16:19:18.886Z,47.80
2018-05-24T16:21:46.378Z,44.90
2018-05-24T16:24:13.890Z,43.00
2018-05-24T16:26:41.507Z,41.50
2018-05-24T16:29:09.090Z,40.80
2018-05-24T16:31:36.598Z,40.20
2018-05-24T16:34:04.938Z,38.60
2018-05-24T16:36:32.458Z,38.60
2018-05-24T16:38:59.977Z,38.90
2018-05-24T16:41:27.462Z,39.30
2018-05-24T16:43:55.033Z,40.20
2018-05-24T16:46:23.294Z,43.30
2018-05-24T16:48:50.921Z,43.30
2018-05-24T16:51:19.195Z,46.60
2018-05-24T16:53:46.882Z,46.50
2018-05-24T16:56:14.387Z,46.30
2018-05-24T16:58:41.871Z,46.40
2018-05-24T17:01:10.146Z,44.10
2018-05-24T17:03:37.634Z,44.00
2018-05-24T17:06:05.245Z,43.10
2018-05-24T17:08:33.498Z,44.60
2018-05-24T17:11:01.006Z,44.60
2018-05-24T17:13:28.499Z,46.60
2018-05-24T17:15:56.782Z,48.70
2018-05-24T17:18:25.043Z,48.80
2018-05-24T17:20:52.597Z,48.80
2018-05-24T17:23:20.900Z,49.10
2018-05-24T17:25:48.485Z,49.10
2018-05-24T17:28:16.774Z,51.30
2018-05-24T17:30:44.267Z,51.20
2018-05-24T17:33:12.514Z,53.80
2018-05-24T17:35:40.032Z,54.40
2018-05-24T17:38:07.519Z,54.70
2018-05-24T17:40:35.031Z,55.10
2018-05-24T17:43:02.574Z,55.80
2018-05-24T17:45:30.163Z,56.30
2018-05-24T17:47:57.646Z,56.90
2018-05-24T17:50:25.227Z,57.30
2018-05-24T17:52:52.828Z,57.70
2018-05-24T17:55:21.123Z,58.60
2018-05-24T17:57:49.410Z,58.90
2018-05-24T18:00:17.010Z,58.90
2018-05-24T18:02:44.618Z,59.10
2018-05-24T18:05:12.154Z,59.40
2018-05-24T18:07:39.650Z,59.10
2018-05-24T18:10:07.249Z,58.50
2018-05-24T18:12:34.767Z,58.30
2018-05-24T18:15:02.424Z,59.00
2018-05-24T18:17:30.715Z,59.40
2018-05-24T18:19:58.294Z,59.30
2018-05-24T18:22:25.892Z,59.70
2018-05-24T18:24:54.189Z,60.10
2018-05-24T18:27:21.686Z,60.10
2018-05-24T18:29:49.971Z,60.20
2018-05-24T18:32:18.470Z,60.20
2018-05-24T18:34:45.993Z,60.30
2018-05-24T18:37:14.278Z,60.00
2018-05-24T18:39:41.897Z,60.00
2018-05-24T18:42:09.419Z,60.10
2018-05-24T18:44:37.037Z,60.00
2018-05-24T18:47:05.426Z,60.50
2018-05-24T18:49:32.939Z,60.40
2018-05-24T18:52:00.451Z,62.10
2018-05-24T18:54:27.978Z,63.20
2018-05-24T18:56:55.491Z,64.00
2018-05-24T18:59:22.970Z,65.20
2018-05-24T19:01:50.560Z,64.50
2018-05-24T19:04:18.922Z,65.20
2018-05-24T19:06:48.076Z,65.50
2018-05-24T19:09:16.347Z,65.90
2018-05-24T19:11:43.941Z,65.90
2018-05-24T19:14:11.448Z,66.30
2018-05-24T19:16:38.955Z,66.60
2018-05-24T19:19:06.641Z,67.10
2018-05-24T19:21:34.155Z,67.40
2018-05-24T19:24:01.650Z,67.90
2018-05-24T19:26:29.236Z,68.20
2018-05-24T19:28:57.491Z,69.00
2018-05-24T19:31:25.019Z,68.90
2018-05-24T19:33:53.274Z,69.40
2018-05-24T19:36:20.779Z,69.40
2018-05-24T19:38:48.291Z,69.70
2018-05-24T19:41:15.883Z,69.80
2018-05-24T19:43:43.380Z,70.00
2018-05-24T19:46:11.763Z,70.60
2018-05-24T19:48:39.252Z,70.40
2018-05-24T19:51:06.844Z,70.70
2018-05-24T19:53:34.334Z,70.80
2018-05-24T19:56:02.605Z,71.20
2018-05-24T19:58:30.106Z,71.90
2018-05-24T20:00:57.686Z,71.20
2018-05-24T20:03:25.276Z,71.30
2018-05-24T20:05:52.762Z,71.40
2018-05-24T20:08:20.342Z,71.50
2018-05-24T20:10:47.922Z,71.10
2018-05-24T20:13:15.433Z,71.90
2018-05-24T20:15:43.692Z,72.40
2018-05-24T20:18:11.199Z,72.40
2018-05-24T20:20:38.777Z,72.90
2018-05-24T20:23:06.317Z,73.30
2018-05-24T20:25:33.846Z,73.40
2018-05-24T20:28:01.354Z,73.40
2018-05-24T20:30:29.606Z,73.80
2018-05-24T20:32:57.138Z,73.70
2018-05-24T20:35:25.615Z,73.50
2018-05-24T20:37:53.130Z,73.40
2018-05-24T20:40:20.631Z,73.40
2018-05-24T20:42:48.144Z,73.90
2018-05-24T20:45:15.646Z,74.10
2018-05-24T20:47:43.266Z,74.30
2018-05-24T20:50:10.763Z,74.90
2018-05-24T20:52:38.317Z,75.80
2018-05-24T20:55:05.838Z,76.30
2018-05-24T20:57:33.360Z,76.60
2018-05-24T21:00:00.863Z,77.00
2018-05-24T21:02:28.382Z,77.90
2018-05-24T21:04:55.873Z,77.00
2018-05-24T21:07:23.442Z,77.60
2018-05-24T21:09:51.675Z,78.00
2018-05-24T21:12:19.203Z,77.90
2018-05-24T21:14:47.477Z,78.20
2018-05-24T21:17:15.009Z,78.20
2018-05-24T21:19:42.490Z,77.60
2018-05-24T21:22:10.034Z,78.50
2018-05-24T21:24:39.030Z,78.10
2018-05-24T21:27:06.548Z,78.10
2018-05-24T21:29:34.038Z,78.20
2018-05-24T21:32:02.322Z,77.80
2018-05-24T21:34:29.908Z,77.70
2018-05-24T21:36:57.412Z,77.90
2018-05-24T21:39:25.657Z,76.80
2018-05-24T21:41:53.170Z,76.80
2018-05-24T21:44:20.659Z,76.70
2018-05-24T21:46:48.169Z,76.40
2018-05-24T21:49:16.574Z,76.80
2018-05-24T21:51:44.829Z,77.20
2018-05-24T21:54:12.430Z,77.10
2018-05-24T21:56:39.919Z,77.80
2018-05-24T21:59:07.439Z,77.60
2018-05-24T22:01:34.934Z,77.60
2018-05-24T22:04:02.581Z,76.90
2018-05-24T22:06:30.866Z,77.20
2018-05-24T22:08:58.461Z,77.20
2018-05-24T22:11:25.963Z,77.70
2018-05-24T22:13:53.481Z,78.60
2018-05-24T22:16:21.010Z,78.70
2018-05-24T22:18:48.503Z,79.00
2018-05-24T22:21:16.787Z,79.80
2018-05-24T22:23:44.303Z,79.70
2018-05-24T22:26:12.554Z,81.80
2018-05-24T22:28:40.074Z,81.80
2018-05-24T22:31:08.337Z,81.70
2018-05-24T22:33:35.852Z,81.60
2018-05-24T22:36:03.344Z,81.80
2018-05-24T22:38:31.638Z,83.40
2018-05-24T22:40:59.956Z,83.70
2018-05-24T22:43:28.235Z,83.80
2018-05-24T22:45:55.730Z,83.70
2018-05-24T22:48:24.019Z,84.00
2018-05-24T22:50:51.515Z,84.00
2018-05-24T22:53:19.790Z,85.70
2018-05-24T22:55:47.278Z,85.70
2018-05-24T22:58:14.869Z,85.90
2018-05-24T23:00:42.357Z,86.30
2018-05-24T23:03:09.949Z,86.50
2018-05-24T23:05:37.383Z,87.20
2018-05-24T23:08:04.902Z,87.50
2018-05-24T23:10:32.442Z,87.90
2018-05-24T23:12:59.957Z,88.10
2018-05-24T23:15:27.576Z,88.50
2018-05-24T23:17:55.881Z,88.00
2018-05-24T23:20:24.254Z,88.40
2018-05-24T23:22:51.747Z,88.40
2018-05-24T23:25:19.327Z,89.00
2018-05-24T23:27:46.936Z,88.00
2018-05-24T23:30:15.315Z,88.00
2018-05-24T23:32:42.799Z,88.00
2018-05-24T23:35:10.344Z,87.80
2018-05-24T23:37:37.897Z,87.90
2018-05-24T23:40:05.425Z,89.50
2018-05-24T23:42:32.957Z,89.00
2018-05-24T23:45:01.247Z,89.00
2018-05-24T23:47:29.514Z,89.30
2018-05-24T23:49:57.248Z,89.30
2018-05-24T23:52:25.629Z,89.30
2018-05-24T23:54:53.167Z,89.30
2018-05-24T23:57:20.665Z,89.40
2018-05-24T23:59:48.282Z,88.70
